sensor_id;sensor_type;location;lat;lon;timestamp;P1;P2;P0
49343;PMS5003;35210;41.606;-87.602;2023-03-16T00:02:10;10.60;8.60;4.00
49343;PMS5003;35210;41.606;-87.602;2023-03-16T00:04:39;7.80;7.00;4.40
49343;PMS5003;35210;41.606;-87.602;2023-03-16T00:07:08;6.40;6.00;4.00
49343;PMS5003;35210;41.606;-87.602;2023-03-16T00:09:38;8.80;6.60;4.40
49343;PMS5003;35210;41.606;-87.602;2023-03-16T00:12:10;7.20;7.20;4.00
49343;PMS5003;35210;41.606;-87.602;2023-03-16T00:14:46;6.00;5.20;3.00
49343;PMS5003;35210;41.606;-87.602;2023-03-16T00:17:20;9.60;7.20;5.00
49343;PMS5003;35210;41.606;-87.602;2023-03-16T00:19:51;5.00;5.00;3.40
49343;PMS5003;35210;41.606;-87.602;2023-03-16T00:22:22;7.60;6.40;4.00
49343;PMS5003;35210;41.606;-87.602;2023-03-16T00:24:51;5.40;5.40;3.20
49343;PMS5003;35210;41.606;-87.602;2023-03-16T00:27:20;6.40;6.40;4.40
49343;PMS5003;35210;41.606;-87.602;2023-03-16T00:29:53;11.80;6.80;3.80
49343;PMS5003;35210;41.606;-87.602;2023-03-16T00:32:22;11.00;7.60;4.00
49343;PMS5003;35210;41.606;-87.602;2023-03-16T00:34:51;7.20;7.20;4.00
49343;PMS5003;35210;41.606;-87.602;2023-03-16T00:37:21;10.40;9.00;5.00
49343;PMS5003;35210;41.606;-87.602;2023-03-16T00:39:50;10.40;7.00;4.00
49343;PMS5003;35210;41.606;-87.602;2023-03-16T00:42:21;4.00;4.00;3.00
49343;PMS5003;35210;41.606;-87.602;2023-03-16T00:44:53;3.60;3.60;0.00
49343;PMS5003;35210;41.606;-87.602;2023-03-16T00:47:22;9.60;8.20;3.60
49343;PMS5003;35210;41.606;-87.602;2023-03-16T00:49:51;8.40;7.40;3.40
49343;PMS5003;35210;41.606;-87.602;2023-03-16T00:52:19;7.80;5.60;4.00
49343;PMS5003;35210;41.606;-87.602;2023-03-16T00:54:48;9.00;6.00;4.00
49343;PMS5003;35210;41.606;-87.602;2023-03-16T00:57:19;5.40;5.40;4.00
49343;PMS5003;35210;41.606;-87.602;2023-03-16T00:59:49;5.00;5.00;3.00
49343;PMS5003;35210;41.606;-87.602;2023-03-16T01:02:20;6.20;6.20;3.00
49343;PMS5003;35210;41.606;-87.602;2023-03-16T01:04:49;5.60;5.60;3.00
49343;PMS5003;35210;41.606;-87.602;2023-03-16T01:07:19;5.80;5.80;3.00
49343;PMS5003;35210;41.606;-87.602;2023-03-16T01:09:48;8.60;5.00;3.00
49343;PMS5003;35210;41.606;-87.602;2023-03-16T01:12:17;3.00;3.00;2.00
49343;PMS5003;35210;41.606;-87.602;2023-03-16T01:14:46;4.40;4.40;3.60
49343;PMS5003;35210;41.606;-87.602;2023-03-16T01:17:16;4.40;4.40;2.40
49343;PMS5003;35210;41.606;-87.602;2023-03-16T01:19:46;6.00;5.80;3.20
49343;PMS5003;35210;41.606;-87.602;2023-03-16T01:22:16;7.20;6.80;4.00
49343;PMS5003;35210;41.606;-87.602;2023-03-16T01:24:44;7.20;6.80;3.80
49343;PMS5003;35210;41.606;-87.602;2023-03-16T01:27:13;7.00;7.00;3.40
49343;PMS5003;35210;41.606;-87.602;2023-03-16T01:29:41;7.60;7.00;4.00
49343;PMS5003;35210;41.606;-87.602;2023-03-16T01:32:10;8.00;8.00;4.00
49343;PMS5003;35210;41.606;-87.602;2023-03-16T01:34:40;5.40;5.40;4.00
49343;PMS5003;35210;41.606;-87.602;2023-03-16T01:37:08;8.80;5.40;3.00
49343;PMS5003;35210;41.606;-87.602;2023-03-16T01:39:36;8.20;6.40;3.80
49343;PMS5003;35210;41.606;-87.602;2023-03-16T01:42:05;6.80;6.80;3.80
49343;PMS5003;35210;41.606;-87.602;2023-03-16T01:44:48;6.60;6.60;3.80
49343;PMS5003;35210;41.606;-87.602;2023-03-16T01:47:20;8.20;8.20;4.00
49343;PMS5003;35210;41.606;-87.602;2023-03-16T01:49:52;8.00;8.00;5.00
49343;PMS5003;35210;41.606;-87.602;2023-03-16T01:52:23;7.00;7.00;4.00
49343;PMS5003;35210;41.606;-87.602;2023-03-16T01:54:58;9.00;8.20;4.20
49343;PMS5003;35210;41.606;-87.602;2023-03-16T01:57:30;9.00;7.80;4.00
49343;PMS5003;35210;41.606;-87.602;2023-03-16T02:00:04;8.80;7.00;4.00
49343;PMS5003;35210;41.606;-87.602;2023-03-16T02:02:36;7.40;7.40;3.20
49343;PMS5003;35210;41.606;-87.602;2023-03-16T02:05:11;14.00;10.00;5.00
49343;PMS5003;35210;41.606;-87.602;2023-03-16T02:07:43;8.80;8.80;4.00
49343;PMS5003;35210;41.606;-87.602;2023-03-16T02:10:14;7.60;7.60;4.00
49343;PMS5003;35210;41.606;-87.602;2023-03-16T02:12:44;8.00;5.20;3.40
49343;PMS5003;35210;41.606;-87.602;2023-03-16T02:15:13;9.00;6.80;3.00
49343;PMS5003;35210;41.606;-87.602;2023-03-16T02:17:42;8.20;8.20;5.00
49343;PMS5003;35210;41.606;-87.602;2023-03-16T02:20:15;6.00;5.00;3.00
49343;PMS5003;35210;41.606;-87.602;2023-03-16T02:22:54;9.20;9.20;4.00
49343;PMS5003;35210;41.606;-87.602;2023-03-16T02:25:23;6.80;6.80;3.00
49343;PMS5003;35210;41.606;-87.602;2023-03-16T02:27:57;11.00;7.00;3.00
49343;PMS5003;35210;41.606;-87.602;2023-03-16T02:30:36;9.40;9.40;5.00
49343;PMS5003;35210;41.606;-87.602;2023-03-16T02:33:04;9.00;8.00;4.00
49343;PMS5003;35210;41.606;-87.602;2023-03-16T02:35:32;9.20;8.00;5.00
49343;PMS5003;35210;41.606;-87.602;2023-03-16T02:38:01;10.00;8.20;5.00
49343;PMS5003;35210;41.606;-87.602;2023-03-16T02:40:30;9.20;9.20;5.00
49343;PMS5003;35210;41.606;-87.602;2023-03-16T02:43:00;9.40;8.40;4.60
49343;PMS5003;35210;41.606;-87.602;2023-03-16T02:45:31;5.40;3.40;2.00
49343;PMS5003;35210;41.606;-87.602;2023-03-16T02:48:06;7.00;7.00;3.20
49343;PMS5003;35210;41.606;-87.602;2023-03-16T02:50:43;8.40;7.00;4.00
49343;PMS5003;35210;41.606;-87.602;2023-03-16T02:53:13;9.40;8.60;4.00
49343;PMS5003;35210;41.606;-87.602;2023-03-16T02:55:42;8.20;5.80;3.00
49343;PMS5003;35210;41.606;-87.602;2023-03-16T02:58:10;9.00;8.20;4.00
49343;PMS5003;35210;41.606;-87.602;2023-03-16T03:00:39;10.60;8.40;3.80
49343;PMS5003;35210;41.606;-87.602;2023-03-16T03:03:09;7.40;6.20;4.00
49343;PMS5003;35210;41.606;-87.602;2023-03-16T03:05:38;7.60;7.00;3.20
49343;PMS5003;35210;41.606;-87.602;2023-03-16T03:08:07;10.40;8.40;5.00
49343;PMS5003;35210;41.606;-87.602;2023-03-16T03:10:35;12.00;8.40;4.00
49343;PMS5003;35210;41.606;-87.602;2023-03-16T03:13:04;10.00;8.00;4.00
49343;PMS5003;35210;41.606;-87.602;2023-03-16T03:15:33;8.80;8.80;4.00
49343;PMS5003;35210;41.606;-87.602;2023-03-16T03:18:02;9.80;7.80;3.00
49343;PMS5003;35210;41.606;-87.602;2023-03-16T03:20:32;7.00;6.00;3.80
49343;PMS5003;35210;41.606;-87.602;2023-03-16T03:23:00;7.80;7.20;3.60
49343;PMS5003;35210;41.606;-87.602;2023-03-16T03:25:31;12.20;9.60;4.40
49343;PMS5003;35210;41.606;-87.602;2023-03-16T03:28:00;6.40;4.00;3.00
49343;PMS5003;35210;41.606;-87.602;2023-03-16T03:30:30;15.20;11.80;6.20
49343;PMS5003;35210;41.606;-87.602;2023-03-16T03:32:58;11.80;8.20;4.40
49343;PMS5003;35210;41.606;-87.602;2023-03-16T03:35:26;6.80;6.20;4.00
49343;PMS5003;35210;41.606;-87.602;2023-03-16T03:37:57;10.40;9.20;4.00
49343;PMS5003;35210;41.606;-87.602;2023-03-16T03:40:27;11.40;8.60;4.00
49343;PMS5003;35210;41.606;-87.602;2023-03-16T03:42:55;9.60;7.40;4.00
49343;PMS5003;35210;41.606;-87.602;2023-03-16T03:45:24;8.00;7.00;3.80
49343;PMS5003;35210;41.606;-87.602;2023-03-16T03:47:52;12.20;8.40;5.00
49343;PMS5003;35210;41.606;-87.602;2023-03-16T03:50:21;9.80;8.00;2.80
49343;PMS5003;35210;41.606;-87.602;2023-03-16T03:52:49;11.40;11.40;4.40
49343;PMS5003;35210;41.606;-87.602;2023-03-16T03:55:19;10.40;9.00;4.80
49343;PMS5003;35210;41.606;-87.602;2023-03-16T03:57:47;7.20;6.40;3.40
49343;PMS5003;35210;41.606;-87.602;2023-03-16T04:00:16;8.40;7.40;5.60
49343;PMS5003;35210;41.606;-87.602;2023-03-16T04:02:45;3.40;3.00;3.00
49343;PMS5003;35210;41.606;-87.602;2023-03-16T04:05:13;10.80;9.00;4.40
49343;PMS5003;35210;41.606;-87.602;2023-03-16T04:07:41;10.00;9.20;4.00
49343;PMS5003;35210;41.606;-87.602;2023-03-16T04:10:10;9.40;9.40;4.00
49343;PMS5003;35210;41.606;-87.602;2023-03-16T04:12:39;9.00;9.00;6.00
49343;PMS5003;35210;41.606;-87.602;2023-03-16T04:15:08;10.60;8.00;4.00
49343;PMS5003;35210;41.606;-87.602;2023-03-16T04:17:36;12.20;8.40;4.40
49343;PMS5003;35210;41.606;-87.602;2023-03-16T04:20:05;11.20;9.00;5.40
49343;PMS5003;35210;41.606;-87.602;2023-03-16T04:22:38;6.80;6.80;2.20
49343;PMS5003;35210;41.606;-87.602;2023-03-16T04:25:07;9.00;7.40;4.00
49343;PMS5003;35210;41.606;-87.602;2023-03-16T04:27:36;10.40;9.80;6.40
49343;PMS5003;35210;41.606;-87.602;2023-03-16T04:30:06;12.80;10.60;7.00
49343;PMS5003;35210;41.606;-87.602;2023-03-16T04:32:37;9.60;9.60;5.00
49343;PMS5003;35210;41.606;-87.602;2023-03-16T04:35:05;11.80;10.40;5.40
49343;PMS5003;35210;41.606;-87.602;2023-03-16T04:37:34;8.60;8.60;6.00
49343;PMS5003;35210;41.606;-87.602;2023-03-16T04:40:02;11.00;10.00;6.20
49343;PMS5003;35210;41.606;-87.602;2023-03-16T04:42:39;8.20;8.20;4.80
49343;PMS5003;35210;41.606;-87.602;2023-03-16T04:45:10;7.60;7.60;4.60
49343;PMS5003;35210;41.606;-87.602;2023-03-16T04:47:38;11.40;8.80;6.00
49343;PMS5003;35210;41.606;-87.602;2023-03-16T04:50:08;9.00;9.00;4.00
49343;PMS5003;35210;41.606;-87.602;2023-03-16T04:52:38;7.60;7.60;4.00
49343;PMS5003;35210;41.606;-87.602;2023-03-16T04:55:06;12.60;10.60;5.80
49343;PMS5003;35210;41.606;-87.602;2023-03-16T04:57:35;6.00;6.00;2.40
49343;PMS5003;35210;41.606;-87.602;2023-03-16T05:00:03;12.80;12.80;6.80
49343;PMS5003;35210;41.606;-87.602;2023-03-16T05:02:37;11.00;9.20;7.00
49343;PMS5003;35210;41.606;-87.602;2023-03-16T05:05:06;10.40;8.80;6.00
49343;PMS5003;35210;41.606;-87.602;2023-03-16T05:07:34;14.20;12.00;7.00
49343;PMS5003;35210;41.606;-87.602;2023-03-16T05:10:02;11.00;11.00;6.80
49343;PMS5003;35210;41.606;-87.602;2023-03-16T05:12:31;9.00;7.00;4.00
49343;PMS5003;35210;41.606;-87.602;2023-03-16T05:14:59;11.80;11.00;7.00
49343;PMS5003;35210;41.606;-87.602;2023-03-16T05:17:27;12.40;11.60;4.40
49343;PMS5003;35210;41.606;-87.602;2023-03-16T05:19:57;12.60;11.00;7.00
49343;PMS5003;35210;41.606;-87.602;2023-03-16T05:22:25;13.60;13.40;7.20
49343;PMS5003;35210;41.606;-87.602;2023-03-16T05:24:53;12.00;12.00;7.20
49343;PMS5003;35210;41.606;-87.602;2023-03-16T05:27:22;19.00;12.60;6.80
49343;PMS5003;35210;41.606;-87.602;2023-03-16T05:29:50;14.60;13.40;7.40
49343;PMS5003;35210;41.606;-87.602;2023-03-16T05:32:18;16.00;14.00;8.00
49343;PMS5003;35210;41.606;-87.602;2023-03-16T05:34:50;8.20;3.00;0.20
49343;PMS5003;35210;41.606;-87.602;2023-03-16T05:37:20;13.00;11.80;7.20
49343;PMS5003;35210;41.606;-87.602;2023-03-16T05:39:49;13.00;12.20;5.20
49343;PMS5003;35210;41.606;-87.602;2023-03-16T05:42:17;18.40;14.00;7.20
49343;PMS5003;35210;41.606;-87.602;2023-03-16T05:44:45;16.40;16.00;8.00
49343;PMS5003;35210;41.606;-87.602;2023-03-16T05:47:13;14.40;11.60;8.00
49343;PMS5003;35210;41.606;-87.602;2023-03-16T05:49:43;15.20;14.00;8.00
49343;PMS5003;35210;41.606;-87.602;2023-03-16T05:52:12;15.00;14.20;8.20
49343;PMS5003;35210;41.606;-87.602;2023-03-16T05:54:42;18.20;15.80;8.00
49343;PMS5003;35210;41.606;-87.602;2023-03-16T05:57:10;20.80;14.20;8.60
49343;PMS5003;35210;41.606;-87.602;2023-03-16T05:59:38;13.20;11.40;8.00
49343;PMS5003;35210;41.606;-87.602;2023-03-16T06:02:06;15.60;12.60;7.20
49343;PMS5003;35210;41.606;-87.602;2023-03-16T06:04:35;12.00;10.40;6.00
49343;PMS5003;35210;41.606;-87.602;2023-03-16T06:07:03;14.60;13.20;7.00
49343;PMS5003;35210;41.606;-87.602;2023-03-16T06:09:31;18.00;15.20;8.00
49343;PMS5003;35210;41.606;-87.602;2023-03-16T06:12:01;15.40;10.60;6.40
49343;PMS5003;35210;41.606;-87.602;2023-03-16T06:14:30;13.00;13.00;7.80
49343;PMS5003;35210;41.606;-87.602;2023-03-16T06:16:58;11.00;10.40;7.00
49343;PMS5003;35210;41.606;-87.602;2023-03-16T06:19:26;14.20;13.20;9.20
49343;PMS5003;35210;41.606;-87.602;2023-03-16T06:21:54;22.00;17.60;8.00
49343;PMS5003;35210;41.606;-87.602;2023-03-16T06:24:23;14.20;13.00;9.00
49343;PMS5003;35210;41.606;-87.602;2023-03-16T06:26:51;16.20;13.00;6.40
49343;PMS5003;35210;41.606;-87.602;2023-03-16T06:29:21;12.80;11.80;7.00
49343;PMS5003;35210;41.606;-87.602;2023-03-16T06:31:49;14.60;13.40;7.00
49343;PMS5003;35210;41.606;-87.602;2023-03-16T06:34:19;10.20;10.20;6.00
49343;PMS5003;35210;41.606;-87.602;2023-03-16T06:36:47;15.40;13.20;7.20
49343;PMS5003;35210;41.606;-87.602;2023-03-16T06:39:17;18.20;17.40;8.80
49343;PMS5003;35210;41.606;-87.602;2023-03-16T06:41:45;14.40;13.40;9.00
49343;PMS5003;35210;41.606;-87.602;2023-03-16T06:44:13;18.00;14.00;8.80
49343;PMS5003;35210;41.606;-87.602;2023-03-16T06:46:43;13.40;13.40;9.60
49343;PMS5003;35210;41.606;-87.602;2023-03-16T06:49:11;19.20;17.00;10.20
49343;PMS5003;35210;41.606;-87.602;2023-03-16T06:51:39;19.60;19.20;13.80
49343;PMS5003;35210;41.606;-87.602;2023-03-16T06:54:07;23.80;19.40;13.00
49343;PMS5003;35210;41.606;-87.602;2023-03-16T06:56:36;19.80;19.00;14.80
49343;PMS5003;35210;41.606;-87.602;2023-03-16T06:59:05;23.20;19.40;12.20
49343;PMS5003;35210;41.606;-87.602;2023-03-16T07:01:33;18.80;16.00;9.00
49343;PMS5003;35210;41.606;-87.602;2023-03-16T07:04:02;16.40;15.00;8.80
49343;PMS5003;35210;41.606;-87.602;2023-03-16T07:06:31;19.20;17.20;10.80
49343;PMS5003;35210;41.606;-87.602;2023-03-16T07:08:59;19.20;18.60;10.80
49343;PMS5003;35210;41.606;-87.602;2023-03-16T07:11:29;18.20;15.40;9.20
49343;PMS5003;35210;41.606;-87.602;2023-03-16T07:13:59;19.80;15.40;9.40
49343;PMS5003;35210;41.606;-87.602;2023-03-16T07:16:27;17.00;17.00;10.20
49343;PMS5003;35210;41.606;-87.602;2023-03-16T07:18:55;16.20;15.20;8.40
49343;PMS5003;35210;41.606;-87.602;2023-03-16T07:21:25;16.60;12.80;8.20
49343;PMS5003;35210;41.606;-87.602;2023-03-16T07:23:53;15.60;14.20;8.00
49343;PMS5003;35210;41.606;-87.602;2023-03-16T07:26:22;17.20;14.00;9.00
49343;PMS5003;35210;41.606;-87.602;2023-03-16T07:28:50;18.00;18.00;8.00
49343;PMS5003;35210;41.606;-87.602;2023-03-16T07:31:19;17.40;14.00;8.00
49343;PMS5003;35210;41.606;-87.602;2023-03-16T07:33:47;18.20;14.00;7.80
49343;PMS5003;35210;41.606;-87.602;2023-03-16T07:36:15;21.00;15.00;8.20
49343;PMS5003;35210;41.606;-87.602;2023-03-16T07:38:44;16.00;13.00;8.00
49343;PMS5003;35210;41.606;-87.602;2023-03-16T07:41:12;17.20;14.00;8.00
49343;PMS5003;35210;41.606;-87.602;2023-03-16T07:43:41;16.20;14.60;7.80
49343;PMS5003;35210;41.606;-87.602;2023-03-16T07:46:10;18.60;14.80;8.00
49343;PMS5003;35210;41.606;-87.602;2023-03-16T07:48:38;13.40;13.40;9.20
49343;PMS5003;35210;41.606;-87.602;2023-03-16T07:51:07;16.20;15.20;9.60
49343;PMS5003;35210;41.606;-87.602;2023-03-16T07:53:35;13.00;11.80;6.80
49343;PMS5003;35210;41.606;-87.602;2023-03-16T07:56:06;18.60;14.60;8.60
49343;PMS5003;35210;41.606;-87.602;2023-03-16T07:58:35;18.80;13.20;8.80
49343;PMS5003;35210;41.606;-87.602;2023-03-16T08:01:03;21.60;18.80;9.80
49343;PMS5003;35210;41.606;-87.602;2023-03-16T08:03:32;20.00;17.80;8.20
49343;PMS5003;35210;41.606;-87.602;2023-03-16T08:06:00;16.60;14.20;9.00
49343;PMS5003;35210;41.606;-87.602;2023-03-16T08:08:30;12.40;12.40;7.60
49343;PMS5003;35210;41.606;-87.602;2023-03-16T08:10:58;14.00;12.20;7.80
49343;PMS5003;35210;41.606;-87.602;2023-03-16T08:13:28;18.80;13.60;8.00
49343;PMS5003;35210;41.606;-87.602;2023-03-16T08:15:57;17.20;17.00;8.80
49343;PMS5003;35210;41.606;-87.602;2023-03-16T08:18:26;18.60;14.20;8.00
49343;PMS5003;35210;41.606;-87.602;2023-03-16T08:20:55;15.40;13.80;8.40
49343;PMS5003;35210;41.606;-87.602;2023-03-16T08:23:24;17.60;14.40;8.00
49343;PMS5003;35210;41.606;-87.602;2023-03-16T08:25:54;16.00;15.00;7.60
49343;PMS5003;35210;41.606;-87.602;2023-03-16T08:28:24;18.80;14.60;8.80
49343;PMS5003;35210;41.606;-87.602;2023-03-16T08:30:54;4.80;4.80;3.80
49343;PMS5003;35210;41.606;-87.602;2023-03-16T08:33:22;14.80;12.40;7.40
49343;PMS5003;35210;41.606;-87.602;2023-03-16T08:35:50;17.80;14.80;8.80
49343;PMS5003;35210;41.606;-87.602;2023-03-16T08:38:19;17.40;17.40;8.00
49343;PMS5003;35210;41.606;-87.602;2023-03-16T08:40:47;11.20;8.00;6.00
49343;PMS5003;35210;41.606;-87.602;2023-03-16T08:43:17;15.20;14.40;7.40
49343;PMS5003;35210;41.606;-87.602;2023-03-16T08:45:46;12.60;11.60;8.00
49343;PMS5003;35210;41.606;-87.602;2023-03-16T08:48:17;14.00;12.60;7.60
49343;PMS5003;35210;41.606;-87.602;2023-03-16T08:50:46;14.20;13.00;7.80
49343;PMS5003;35210;41.606;-87.602;2023-03-16T08:53:14;13.80;12.80;7.20
49343;PMS5003;35210;41.606;-87.602;2023-03-16T08:55:44;15.40;13.00;8.00
49343;PMS5003;35210;41.606;-87.602;2023-03-16T08:58:12;15.00;13.40;8.80
49343;PMS5003;35210;41.606;-87.602;2023-03-16T09:00:41;12.60;11.40;7.40
49343;PMS5003;35210;41.606;-87.602;2023-03-16T09:03:09;17.40;14.00;8.00
49343;PMS5003;35210;41.606;-87.602;2023-03-16T09:05:39;21.00;17.60;8.40
49343;PMS5003;35210;41.606;-87.602;2023-03-16T09:08:07;18.60;13.40;6.80
49343;PMS5003;35210;41.606;-87.602;2023-03-16T09:10:35;13.60;11.60;7.00
49343;PMS5003;35210;41.606;-87.602;2023-03-16T09:13:03;12.00;11.00;7.00
49343;PMS5003;35210;41.606;-87.602;2023-03-16T09:15:33;18.80;15.20;7.60
49343;PMS5003;35210;41.606;-87.602;2023-03-16T09:18:02;15.60;13.00;8.40
49343;PMS5003;35210;41.606;-87.602;2023-03-16T09:20:30;14.80;13.60;8.60
49343;PMS5003;35210;41.606;-87.602;2023-03-16T09:23:00;14.80;12.20;8.40
49343;PMS5003;35210;41.606;-87.602;2023-03-16T09:25:29;13.20;9.60;6.20
49343;PMS5003;35210;41.606;-87.602;2023-03-16T09:27:57;16.40;13.00;7.80
49343;PMS5003;35210;41.606;-87.602;2023-03-16T09:30:26;8.20;7.80;7.60
49343;PMS5003;35210;41.606;-87.602;2023-03-16T09:32:54;13.60;13.00;8.00
49343;PMS5003;35210;41.606;-87.602;2023-03-16T09:35:22;17.40;15.40;8.40
49343;PMS5003;35210;41.606;-87.602;2023-03-16T09:37:51;12.80;11.40;7.20
49343;PMS5003;35210;41.606;-87.602;2023-03-16T09:40:22;13.80;12.20;7.40
49343;PMS5003;35210;41.606;-87.602;2023-03-16T09:42:55;17.40;13.80;8.00
49343;PMS5003;35210;41.606;-87.602;2023-03-16T09:45:34;16.20;13.60;8.00
49343;PMS5003;35210;41.606;-87.602;2023-03-16T09:48:10;18.20;14.80;7.60
49343;PMS5003;35210;41.606;-87.602;2023-03-16T09:50:39;17.00;13.40;8.00
49343;PMS5003;35210;41.606;-87.602;2023-03-16T09:53:12;14.60;13.20;7.00
49343;PMS5003;35210;41.606;-87.602;2023-03-16T09:55:51;13.20;9.40;7.00
49343;PMS5003;35210;41.606;-87.602;2023-03-16T09:58:23;13.60;13.00;7.60
49343;PMS5003;35210;41.606;-87.602;2023-03-16T10:00:54;18.80;15.20;8.40
49343;PMS5003;35210;41.606;-87.602;2023-03-16T10:03:35;15.00;14.60;8.00
49343;PMS5003;35210;41.606;-87.602;2023-03-16T10:06:25;13.20;12.20;6.60
49343;PMS5003;35210;41.606;-87.602;2023-03-16T10:08:54;13.80;13.00;7.60
49343;PMS5003;35210;41.606;-87.602;2023-03-16T10:11:34;18.60;15.80;8.80
49343;PMS5003;35210;41.606;-87.602;2023-03-16T10:14:09;11.60;10.00;6.40
49343;PMS5003;35210;41.606;-87.602;2023-03-16T10:16:46;21.80;16.80;8.60
49343;PMS5003;35210;41.606;-87.602;2023-03-16T10:19:17;16.00;13.20;8.20
49343;PMS5003;35210;41.606;-87.602;2023-03-16T10:21:49;20.00;16.40;7.80
49343;PMS5003;35210;41.606;-87.602;2023-03-16T10:24:23;12.80;12.80;7.40
49343;PMS5003;35210;41.606;-87.602;2023-03-16T10:27:15;14.80;12.20;7.00
49343;PMS5003;35210;41.606;-87.602;2023-03-16T10:29:47;14.60;12.60;6.60
49343;PMS5003;35210;41.606;-87.602;2023-03-16T10:32:16;16.20;14.00;6.40
49343;PMS5003;35210;41.606;-87.602;2023-03-16T10:34:46;17.00;13.60;7.60
49343;PMS5003;35210;41.606;-87.602;2023-03-16T10:37:20;16.00;13.60;6.80
49343;PMS5003;35210;41.606;-87.602;2023-03-16T10:39:52;13.40;12.20;7.00
49343;PMS5003;35210;41.606;-87.602;2023-03-16T10:42:23;14.40;12.00;7.00
49343;PMS5003;35210;41.606;-87.602;2023-03-16T10:44:55;14.60;13.40;8.00
49343;PMS5003;35210;41.606;-87.602;2023-03-16T10:47:27;15.60;13.00;8.00
49343;PMS5003;35210;41.606;-87.602;2023-03-16T10:49:57;15.60;12.20;7.00
49343;PMS5003;35210;41.606;-87.602;2023-03-16T10:52:39;13.00;11.00;5.20
49343;PMS5003;35210;41.606;-87.602;2023-03-16T10:55:15;15.40;12.40;8.00
49343;PMS5003;35210;41.606;-87.602;2023-03-16T10:57:49;15.40;13.00;8.00
49343;PMS5003;35210;41.606;-87.602;2023-03-16T11:00:20;15.60;13.60;7.00
49343;PMS5003;35210;41.606;-87.602;2023-03-16T11:02:52;13.00;12.00;4.00
49343;PMS5003;35210;41.606;-87.602;2023-03-16T11:05:26;17.00;16.00;8.00
49343;PMS5003;35210;41.606;-87.602;2023-03-16T11:08:00;17.00;15.60;8.80
49343;PMS5003;35210;41.606;-87.602;2023-03-16T11:10:37;22.40;15.80;9.20
49343;PMS5003;35210;41.606;-87.602;2023-03-16T11:13:12;12.40;9.80;6.20
49343;PMS5003;35210;41.606;-87.602;2023-03-16T11:15:44;16.20;14.60;8.80
49343;PMS5003;35210;41.606;-87.602;2023-03-16T11:18:19;18.80;15.00;8.40
49343;PMS5003;35210;41.606;-87.602;2023-03-16T11:20:55;14.40;13.20;9.00
49343;PMS5003;35210;41.606;-87.602;2023-03-16T11:23:28;13.80;13.80;8.40
49343;PMS5003;35210;41.606;-87.602;2023-03-16T11:26:01;19.20;14.40;8.80
49343;PMS5003;35210;41.606;-87.602;2023-03-16T11:28:36;20.40;18.20;11.20
49343;PMS5003;35210;41.606;-87.602;2023-03-16T11:31:12;22.20;16.40;9.20
49343;PMS5003;35210;41.606;-87.602;2023-03-16T11:33:49;20.00;19.20;11.00
49343;PMS5003;35210;41.606;-87.602;2023-03-16T11:36:24;18.40;18.20;11.20
49343;PMS5003;35210;41.606;-87.602;2023-03-16T11:39:06;22.40;22.00;11.80
49343;PMS5003;35210;41.606;-87.602;2023-03-16T11:41:42;21.60;20.80;12.80
49343;PMS5003;35210;41.606;-87.602;2023-03-16T11:44:24;22.80;20.20;12.80
49343;PMS5003;35210;41.606;-87.602;2023-03-16T11:47:00;24.00;17.20;13.00
49343;PMS5003;35210;41.606;-87.602;2023-03-16T11:49:47;19.40;18.60;12.00
49343;PMS5003;35210;41.606;-87.602;2023-03-16T11:52:26;20.80;18.40;11.00
49343;PMS5003;35210;41.606;-87.602;2023-03-16T11:55:09;20.60;20.00;10.20
49343;PMS5003;35210;41.606;-87.602;2023-03-16T11:57:51;21.80;16.60;10.00
49343;PMS5003;35210;41.606;-87.602;2023-03-16T12:00:34;19.80;19.60;13.00
49343;PMS5003;35210;41.606;-87.602;2023-03-16T12:03:22;23.00;20.80;14.60
49343;PMS5003;35210;41.606;-87.602;2023-03-16T12:06:05;18.60;17.60;11.00
49343;PMS5003;35210;41.606;-87.602;2023-03-16T12:12:03;23.40;18.60;11.80
49343;PMS5003;35210;41.606;-87.602;2023-03-16T12:14:50;21.00;19.20;10.80
49343;PMS5003;35210;41.606;-87.602;2023-03-16T12:17:30;5.40;5.40;3.60
49343;PMS5003;35210;41.606;-87.602;2023-03-16T12:20:04;22.60;20.80;13.00
49343;PMS5003;35210;41.606;-87.602;2023-03-16T12:22:42;18.60;18.40;10.40
49343;PMS5003;35210;41.606;-87.602;2023-03-16T12:25:15;17.80;17.40;11.40
49343;PMS5003;35210;41.606;-87.602;2023-03-16T12:27:46;15.60;12.60;10.00
49343;PMS5003;35210;41.606;-87.602;2023-03-16T12:30:23;18.80;18.20;11.00
49343;PMS5003;35210;41.606;-87.602;2023-03-16T12:33:05;24.80;22.60;13.00
49343;PMS5003;35210;41.606;-87.602;2023-03-16T12:35:42;18.80;15.20;11.20
49343;PMS5003;35210;41.606;-87.602;2023-03-16T12:38:22;19.60;19.40;9.80
49343;PMS5003;35210;41.606;-87.602;2023-03-16T12:41:07;24.00;19.80;12.60
49343;PMS5003;35210;41.606;-87.602;2023-03-16T12:43:50;15.80;13.00;7.80
49343;PMS5003;35210;41.606;-87.602;2023-03-16T12:46:29;20.80;16.40;10.00
49343;PMS5003;35210;41.606;-87.602;2023-03-16T12:49:08;16.00;15.20;8.80
49343;PMS5003;35210;41.606;-87.602;2023-03-16T12:51:39;16.80;14.00;7.60
49343;PMS5003;35210;41.606;-87.602;2023-03-16T12:54:19;21.80;19.00;10.00
49343;PMS5003;35210;41.606;-87.602;2023-03-16T12:56:49;20.80;20.00;11.60
49343;PMS5003;35210;41.606;-87.602;2023-03-16T12:59:21;19.40;16.80;10.40
49343;PMS5003;35210;41.606;-87.602;2023-03-16T13:01:50;18.40;17.80;12.00
49343;PMS5003;35210;41.606;-87.602;2023-03-16T13:04:30;23.40;17.60;12.80
49343;PMS5003;35210;41.606;-87.602;2023-03-16T13:07:01;18.80;18.20;11.20
49343;PMS5003;35210;41.606;-87.602;2023-03-16T13:09:34;20.20;17.20;10.00
49343;PMS5003;35210;41.606;-87.602;2023-03-16T13:12:08;16.60;14.20;10.20
49343;PMS5003;35210;41.606;-87.602;2023-03-16T13:14:47;24.40;17.00;9.60
49343;PMS5003;35210;41.606;-87.602;2023-03-16T13:17:24;20.60;18.00;10.00
49343;PMS5003;35210;41.606;-87.602;2023-03-16T13:20:01;26.00;20.40;12.00
49343;PMS5003;35210;41.606;-87.602;2023-03-16T13:22:47;16.60;15.40;9.80
49343;PMS5003;35210;41.606;-87.602;2023-03-16T13:25:21;16.20;14.80;9.60
49343;PMS5003;35210;41.606;-87.602;2023-03-16T13:28:01;20.00;18.00;10.00
49343;PMS5003;35210;41.606;-87.602;2023-03-16T13:30:33;29.20;23.40;12.60
49343;PMS5003;35210;41.606;-87.602;2023-03-16T13:33:03;20.20;15.60;9.40
49343;PMS5003;35210;41.606;-87.602;2023-03-16T13:35:43;21.60;18.40;11.60
49343;PMS5003;35210;41.606;-87.602;2023-03-16T13:38:14;20.20;18.60;12.60
49343;PMS5003;35210;41.606;-87.602;2023-03-16T13:40:44;19.60;16.40;10.40
49343;PMS5003;35210;41.606;-87.602;2023-03-16T13:43:14;22.80;20.40;11.20
49343;PMS5003;35210;41.606;-87.602;2023-03-16T13:45:43;19.80;18.80;12.40
49343;PMS5003;35210;41.606;-87.602;2023-03-16T13:48:12;20.60;17.60;10.40
49343;PMS5003;35210;41.606;-87.602;2023-03-16T13:50:44;14.80;12.20;7.00
49343;PMS5003;35210;41.606;-87.602;2023-03-16T13:53:18;19.80;15.80;11.60
49343;PMS5003;35210;41.606;-87.602;2023-03-16T13:55:50;19.20;15.00;8.00
49343;PMS5003;35210;41.606;-87.602;2023-03-16T13:58:21;16.20;12.60;8.60
49343;PMS5003;35210;41.606;-87.602;2023-03-16T14:00:55;21.80;18.20;9.20
49343;PMS5003;35210;41.606;-87.602;2023-03-16T14:03:30;20.00;16.80;10.20
49343;PMS5003;35210;41.606;-87.602;2023-03-16T14:06:02;20.00;16.40;9.00